Terminal Aerodrome Forecast
Issued by NWS

Home | Current Version | Previous Version | Text Only | Print | Product List | Glossary On
Versions: 1 2 3 4 5 6 7 8 9 10 11 12 13
000
FTUS45 KREV 211100
TAFMMH
TAF
KMMH 211125Z 2112/2212 VRB03KT 5SM HZ SCT080 BKN120
     FM211700 11011G18KT P6SM VCSH SCT050 BKN070
     FM212100 26012G19KT P6SM SCT040 BKN080
     FM220100 29011KT P6SM SCT100
     FM220600 VRB03KT P6SM SKC
      AMD NOT SKED 2112/2114=

USA.gov is the U.S. government's official web portal to all federal, state and local government web resources and services.